sensor_id;sensor_type;location;lat;lon;timestamp;temperature;humidity
17992;DHT22;9121;50.926;5.340;2024-03-02T00:01:35;9.00;99.90
17992;DHT22;9121;50.926;5.340;2024-03-02T00:04:04;8.60;99.90
17992;DHT22;9121;50.926;5.340;2024-03-02T00:06:34;8.40;99.90
17992;DHT22;9121;50.926;5.340;2024-03-02T00:09:01;8.30;99.90
17992;DHT22;9121;50.926;5.340;2024-03-02T00:11:28;8.30;99.90
17992;DHT22;9121;50.926;5.340;2024-03-02T00:13:55;8.30;99.90
17992;DHT22;9121;50.926;5.340;2024-03-02T00:16:22;8.30;99.90
17992;DHT22;9121;50.926;5.340;2024-03-02T00:18:49;8.30;99.90
17992;DHT22;9121;50.926;5.340;2024-03-02T00:21:16;8.30;99.90
17992;DHT22;9121;50.926;5.340;2024-03-02T00:23:48;8.40;99.90
17992;DHT22;9121;50.926;5.340;2024-03-02T00:26:16;8.40;99.90
17992;DHT22;9121;50.926;5.340;2024-03-02T00:28:43;8.40;99.90
17992;DHT22;9121;50.926;5.340;2024-03-02T00:31:11;8.40;99.90
17992;DHT22;9121;50.926;5.340;2024-03-02T00:33:41;8.50;99.90
17992;DHT22;9121;50.926;5.340;2024-03-02T00:36:09;8.50;99.90
17992;DHT22;9121;50.926;5.340;2024-03-02T00:38:44;8.50;99.90
17992;DHT22;9121;50.926;5.340;2024-03-02T00:41:19;8.60;99.90
17992;DHT22;9121;50.926;5.340;2024-03-02T00:43:51;8.60;99.90
17992;DHT22;9121;50.926;5.340;2024-03-02T00:46:19;8.70;99.90
17992;DHT22;9121;50.926;5.340;2024-03-02T00:48:51;8.80;99.90
17992;DHT22;9121;50.926;5.340;2024-03-02T00:51:20;8.80;99.90
17992;DHT22;9121;50.926;5.340;2024-03-02T00:53:47;8.70;99.90
17992;DHT22;9121;50.926;5.340;2024-03-02T00:56:16;8.70;99.90
17992;DHT22;9121;50.926;5.340;2024-03-02T00:58:43;8.70;99.90
17992;DHT22;9121;50.926;5.340;2024-03-02T01:01:09;8.70;99.90
17992;DHT22;9121;50.926;5.340;2024-03-02T01:03:36;8.80;99.90
17992;DHT22;9121;50.926;5.340;2024-03-02T01:06:04;8.80;99.90
17992;DHT22;9121;50.926;5.340;2024-03-02T01:08:33;8.80;99.90
17992;DHT22;9121;50.926;5.340;2024-03-02T01:11:00;8.80;99.90
17992;DHT22;9121;50.926;5.340;2024-03-02T01:13:28;8.80;99.90
17992;DHT22;9121;50.926;5.340;2024-03-02T01:15:55;8.70;99.90
17992;DHT22;9121;50.926;5.340;2024-03-02T01:18:22;8.80;99.90
17992;DHT22;9121;50.926;5.340;2024-03-02T01:20:50;8.70;99.90
17992;DHT22;9121;50.926;5.340;2024-03-02T01:23:18;8.80;99.90
17992;DHT22;9121;50.926;5.340;2024-03-02T01:25:46;8.80;99.90
17992;DHT22;9121;50.926;5.340;2024-03-02T01:28:13;8.80;99.90
17992;DHT22;9121;50.926;5.340;2024-03-02T01:30:41;8.70;99.90
17992;DHT22;9121;50.926;5.340;2024-03-02T01:33:08;8.70;99.90
17992;DHT22;9121;50.926;5.340;2024-03-02T01:35:35;8.70;99.90
17992;DHT22;9121;50.926;5.340;2024-03-02T01:38:03;8.70;99.90
17992;DHT22;9121;50.926;5.340;2024-03-02T01:40:32;8.70;99.90
17992;DHT22;9121;50.926;5.340;2024-03-02T01:42:59;8.60;99.90
17992;DHT22;9121;50.926;5.340;2024-03-02T01:45:25;8.60;99.90
17992;DHT22;9121;50.926;5.340;2024-03-02T01:47:54;8.60;99.90
17992;DHT22;9121;50.926;5.340;2024-03-02T01:50:28;8.70;99.90
17992;DHT22;9121;50.926;5.340;2024-03-02T01:52:56;8.70;99.90
17992;DHT22;9121;50.926;5.340;2024-03-02T01:55:23;8.70;99.90
17992;DHT22;9121;50.926;5.340;2024-03-02T01:57:50;8.70;99.90
17992;DHT22;9121;50.926;5.340;2024-03-02T02:00:18;8.80;99.90
17992;DHT22;9121;50.926;5.340;2024-03-02T02:02:46;8.80;99.90
17992;DHT22;9121;50.926;5.340;2024-03-02T02:05:20;8.80;99.90
17992;DHT22;9121;50.926;5.340;2024-03-02T02:07:47;8.80;99.90
17992;DHT22;9121;50.926;5.340;2024-03-02T02:10:14;8.80;99.90
17992;DHT22;9121;50.926;5.340;2024-03-02T02:12:41;8.80;99.90
17992;DHT22;9121;50.926;5.340;2024-03-02T02:15:24;8.80;99.90
17992;DHT22;9121;50.926;5.340;2024-03-02T02:17:52;8.80;99.90
17992;DHT22;9121;50.926;5.340;2024-03-02T02:20:21;8.60;99.90
17992;DHT22;9121;50.926;5.340;2024-03-02T02:22:57;8.60;99.90
17992;DHT22;9121;50.926;5.340;2024-03-02T02:25:24;8.60;99.90
17992;DHT22;9121;50.926;5.340;2024-03-02T02:27:51;8.50;99.90
17992;DHT22;9121;50.926;5.340;2024-03-02T02:30:19;8.50;99.90
17992;DHT22;9121;50.926;5.340;2024-03-02T02:32:47;8.50;99.90
17992;DHT22;9121;50.926;5.340;2024-03-02T02:35:14;8.50;99.90
17992;DHT22;9121;50.926;5.340;2024-03-02T02:37:41;8.50;99.90
17992;DHT22;9121;50.926;5.340;2024-03-02T02:40:11;8.50;99.90
17992;DHT22;9121;50.926;5.340;2024-03-02T02:42:38;8.50;99.90
17992;DHT22;9121;50.926;5.340;2024-03-02T02:45:06;8.50;99.90
17992;DHT22;9121;50.926;5.340;2024-03-02T02:47:33;8.50;99.90
17992;DHT22;9121;50.926;5.340;2024-03-02T02:50:01;8.40;99.90
17992;DHT22;9121;50.926;5.340;2024-03-02T02:52:31;8.40;99.90
17992;DHT22;9121;50.926;5.340;2024-03-02T02:55:01;8.40;99.90
17992;DHT22;9121;50.926;5.340;2024-03-02T02:57:31;8.40;99.90
17992;DHT22;9121;50.926;5.340;2024-03-02T03:00:01;8.40;99.90
17992;DHT22;9121;50.926;5.340;2024-03-02T03:02:36;8.40;99.90
17992;DHT22;9121;50.926;5.340;2024-03-02T03:05:03;8.40;99.90
17992;DHT22;9121;50.926;5.340;2024-03-02T03:07:31;8.40;99.90
17992;DHT22;9121;50.926;5.340;2024-03-02T03:09:58;8.40;99.90
17992;DHT22;9121;50.926;5.340;2024-03-02T03:12:25;8.40;99.90
17992;DHT22;9121;50.926;5.340;2024-03-02T03:14:54;8.40;99.90
17992;DHT22;9121;50.926;5.340;2024-03-02T03:17:21;8.40;99.90
17992;DHT22;9121;50.926;5.340;2024-03-02T03:19:48;8.40;99.90
17992;DHT22;9121;50.926;5.340;2024-03-02T03:22:15;8.30;99.90
17992;DHT22;9121;50.926;5.340;2024-03-02T03:24:42;8.30;99.90
17992;DHT22;9121;50.926;5.340;2024-03-02T03:27:09;8.30;99.90
17992;DHT22;9121;50.926;5.340;2024-03-02T03:29:37;8.30;99.90
17992;DHT22;9121;50.926;5.340;2024-03-02T03:32:06;8.40;99.90
17992;DHT22;9121;50.926;5.340;2024-03-02T03:34:33;8.40;99.90
17992;DHT22;9121;50.926;5.340;2024-03-02T03:37:00;8.40;99.90
17992;DHT22;9121;50.926;5.340;2024-03-02T03:39:28;8.30;99.90
17992;DHT22;9121;50.926;5.340;2024-03-02T03:41:55;8.30;99.90
17992;DHT22;9121;50.926;5.340;2024-03-02T03:44:22;8.30;99.90
17992;DHT22;9121;50.926;5.340;2024-03-02T03:46:48;8.20;99.90
17992;DHT22;9121;50.926;5.340;2024-03-02T03:49:17;8.20;99.90
17992;DHT22;9121;50.926;5.340;2024-03-02T03:51:44;8.20;99.90
17992;DHT22;9121;50.926;5.340;2024-03-02T03:54:11;8.30;99.90
17992;DHT22;9121;50.926;5.340;2024-03-02T03:56:38;8.30;99.90
17992;DHT22;9121;50.926;5.340;2024-03-02T03:59:04;8.30;99.90
17992;DHT22;9121;50.926;5.340;2024-03-02T04:01:31;8.30;99.90
17992;DHT22;9121;50.926;5.340;2024-03-02T04:03:59;8.20;99.90
17992;DHT22;9121;50.926;5.340;2024-03-02T04:06:29;8.30;99.90
17992;DHT22;9121;50.926;5.340;2024-03-02T04:08:56;8.30;99.90
17992;DHT22;9121;50.926;5.340;2024-03-02T04:11:22;8.30;99.90
17992;DHT22;9121;50.926;5.340;2024-03-02T04:13:49;8.30;99.90
17992;DHT22;9121;50.926;5.340;2024-03-02T04:16:16;8.30;99.90
17992;DHT22;9121;50.926;5.340;2024-03-02T04:18:43;8.20;99.90
17992;DHT22;9121;50.926;5.340;2024-03-02T04:21:10;8.20;99.90
17992;DHT22;9121;50.926;5.340;2024-03-02T04:23:39;8.20;99.90
17992;DHT22;9121;50.926;5.340;2024-03-02T04:26:06;8.20;99.90
17992;DHT22;9121;50.926;5.340;2024-03-02T04:28:33;8.10;99.90
17992;DHT22;9121;50.926;5.340;2024-03-02T04:31:00;8.10;99.90
17992;DHT22;9121;50.926;5.340;2024-03-02T04:33:26;8.10;99.90
17992;DHT22;9121;50.926;5.340;2024-03-02T04:35:53;8.10;99.90
17992;DHT22;9121;50.926;5.340;2024-03-02T04:38:20;8.10;99.90
17992;DHT22;9121;50.926;5.340;2024-03-02T04:40:49;8.00;99.90
17992;DHT22;9121;50.926;5.340;2024-03-02T04:43:16;8.00;99.90
17992;DHT22;9121;50.926;5.340;2024-03-02T04:45:43;8.00;99.90
17992;DHT22;9121;50.926;5.340;2024-03-02T04:48:10;8.10;99.90
17992;DHT22;9121;50.926;5.340;2024-03-02T04:50:37;8.10;99.90
17992;DHT22;9121;50.926;5.340;2024-03-02T04:53:04;8.10;99.90
17992;DHT22;9121;50.926;5.340;2024-03-02T04:55:31;8.00;99.90
17992;DHT22;9121;50.926;5.340;2024-03-02T04:58:29;8.10;99.90
17992;DHT22;9121;50.926;5.340;2024-03-02T05:00:56;8.00;99.90
17992;DHT22;9121;50.926;5.340;2024-03-02T05:03:23;8.00;99.90
17992;DHT22;9121;50.926;5.340;2024-03-02T05:05:50;7.90;99.90
17992;DHT22;9121;50.926;5.340;2024-03-02T05:08:16;7.90;99.90
17992;DHT22;9121;50.926;5.340;2024-03-02T05:10:43;7.90;99.90
17992;DHT22;9121;50.926;5.340;2024-03-02T05:13:11;7.80;99.90
17992;DHT22;9121;50.926;5.340;2024-03-02T05:15:39;7.80;99.90
17992;DHT22;9121;50.926;5.340;2024-03-02T05:18:06;7.80;99.90
17992;DHT22;9121;50.926;5.340;2024-03-02T05:20:33;7.80;99.90
17992;DHT22;9121;50.926;5.340;2024-03-02T05:23:00;7.70;99.90
17992;DHT22;9121;50.926;5.340;2024-03-02T05:25:27;7.70;99.90
17992;DHT22;9121;50.926;5.340;2024-03-02T05:27:54;7.70;99.90
17992;DHT22;9121;50.926;5.340;2024-03-02T05:30:21;7.70;99.90
17992;DHT22;9121;50.926;5.340;2024-03-02T05:32:50;7.70;99.90
17992;DHT22;9121;50.926;5.340;2024-03-02T05:35:16;7.70;99.90
17992;DHT22;9121;50.926;5.340;2024-03-02T05:37:42;7.70;99.90
17992;DHT22;9121;50.926;5.340;2024-03-02T05:40:10;7.70;99.90
17992;DHT22;9121;50.926;5.340;2024-03-02T05:42:38;7.70;99.90
17992;DHT22;9121;50.926;5.340;2024-03-02T05:45:07;7.70;99.90
17992;DHT22;9121;50.926;5.340;2024-03-02T05:47:34;7.70;99.90
17992;DHT22;9121;50.926;5.340;2024-03-02T05:50:03;7.70;99.90
17992;DHT22;9121;50.926;5.340;2024-03-02T05:52:30;7.70;99.90
17992;DHT22;9121;50.926;5.340;2024-03-02T05:54:57;7.70;99.90
17992;DHT22;9121;50.926;5.340;2024-03-02T05:57:24;7.70;99.90
17992;DHT22;9121;50.926;5.340;2024-03-02T06:00:11;7.70;99.90
17992;DHT22;9121;50.926;5.340;2024-03-02T06:02:39;7.70;99.90
17992;DHT22;9121;50.926;5.340;2024-03-02T06:05:07;7.70;99.90
17992;DHT22;9121;50.926;5.340;2024-03-02T06:07:34;7.70;99.90
17992;DHT22;9121;50.926;5.340;2024-03-02T06:10:02;7.70;99.90
17992;DHT22;9121;50.926;5.340;2024-03-02T06:12:31;7.70;99.90
17992;DHT22;9121;50.926;5.340;2024-03-02T06:14:58;7.70;99.90
17992;DHT22;9121;50.926;5.340;2024-03-02T06:17:25;7.70;99.90
17992;DHT22;9121;50.926;5.340;2024-03-02T06:19:52;7.70;99.90
17992;DHT22;9121;50.926;5.340;2024-03-02T06:22:20;7.70;99.90
17992;DHT22;9121;50.926;5.340;2024-03-02T06:24:48;7.70;99.90
17992;DHT22;9121;50.926;5.340;2024-03-02T06:27:15;7.70;99.90
17992;DHT22;9121;50.926;5.340;2024-03-02T06:29:42;7.70;99.90
17992;DHT22;9121;50.926;5.340;2024-03-02T06:32:08;7.70;99.90
17992;DHT22;9121;50.926;5.340;2024-03-02T06:34:35;7.70;99.90
17992;DHT22;9121;50.926;5.340;2024-03-02T06:37:02;7.70;99.90
17992;DHT22;9121;50.926;5.340;2024-03-02T06:39:30;7.70;99.90
17992;DHT22;9121;50.926;5.340;2024-03-02T06:41:59;7.70;99.90
17992;DHT22;9121;50.926;5.340;2024-03-02T06:44:27;7.70;99.90
17992;DHT22;9121;50.926;5.340;2024-03-02T06:46:53;7.70;99.90
17992;DHT22;9121;50.926;5.340;2024-03-02T06:49:20;7.70;99.90
17992;DHT22;9121;50.926;5.340;2024-03-02T06:51:47;7.70;99.90
17992;DHT22;9121;50.926;5.340;2024-03-02T06:54:15;7.80;99.90
17992;DHT22;9121;50.926;5.340;2024-03-02T06:56:43;7.80;99.90
17992;DHT22;9121;50.926;5.340;2024-03-02T06:59:10;7.80;99.90
17992;DHT22;9121;50.926;5.340;2024-03-02T07:01:37;7.80;99.90
17992;DHT22;9121;50.926;5.340;2024-03-02T07:04:04;7.80;99.90
17992;DHT22;9121;50.926;5.340;2024-03-02T07:06:32;7.80;99.90
17992;DHT22;9121;50.926;5.340;2024-03-02T07:08:58;7.80;99.90
17992;DHT22;9121;50.926;5.340;2024-03-02T07:11:25;7.80;99.90
17992;DHT22;9121;50.926;5.340;2024-03-02T07:13:54;7.80;99.90
17992;DHT22;9121;50.926;5.340;2024-03-02T07:16:20;7.80;99.90
17992;DHT22;9121;50.926;5.340;2024-03-02T07:18:54;7.80;99.90
17992;DHT22;9121;50.926;5.340;2024-03-02T07:21:22;7.80;99.90
17992;DHT22;9121;50.926;5.340;2024-03-02T07:23:49;7.70;99.90
17992;DHT22;9121;50.926;5.340;2024-03-02T07:26:16;7.70;99.90
17992;DHT22;9121;50.926;5.340;2024-03-02T07:28:44;7.80;99.90
17992;DHT22;9121;50.926;5.340;2024-03-02T07:31:13;7.80;99.90
17992;DHT22;9121;50.926;5.340;2024-03-02T07:33:41;7.70;99.90
17992;DHT22;9121;50.926;5.340;2024-03-02T07:36:08;7.70;99.90
17992;DHT22;9121;50.926;5.340;2024-03-02T07:38:35;7.70;99.90
17992;DHT22;9121;50.926;5.340;2024-03-02T07:41:02;7.70;99.90
17992;DHT22;9121;50.926;5.340;2024-03-02T07:43:30;7.70;99.90
17992;DHT22;9121;50.926;5.340;2024-03-02T07:45:58;7.70;99.90
17992;DHT22;9121;50.926;5.340;2024-03-02T07:48:27;7.70;99.90
17992;DHT22;9121;50.926;5.340;2024-03-02T07:50:54;7.60;99.90
17992;DHT22;9121;50.926;5.340;2024-03-02T07:53:21;7.60;99.90
17992;DHT22;9121;50.926;5.340;2024-03-02T07:55:48;7.60;99.90
17992;DHT22;9121;50.926;5.340;2024-03-02T07:58:14;7.70;99.90
17992;DHT22;9121;50.926;5.340;2024-03-02T08:00:43;7.80;99.90
17992;DHT22;9121;50.926;5.340;2024-03-02T08:03:10;7.90;99.90
17992;DHT22;9121;50.926;5.340;2024-03-02T08:05:39;8.00;99.90
17992;DHT22;9121;50.926;5.340;2024-03-02T08:08:06;8.10;99.90
17992;DHT22;9121;50.926;5.340;2024-03-02T08:10:33;8.20;99.90
17992;DHT22;9121;50.926;5.340;2024-03-02T08:13:00;8.30;99.90
17992;DHT22;9121;50.926;5.340;2024-03-02T08:15:27;8.30;99.90
17992;DHT22;9121;50.926;5.340;2024-03-02T08:17:54;8.50;99.90
17992;DHT22;9121;50.926;5.340;2024-03-02T08:20:21;8.60;99.90
17992;DHT22;9121;50.926;5.340;2024-03-02T08:22:50;8.70;99.90
17992;DHT22;9121;50.926;5.340;2024-03-02T08:25:20;8.70;99.90
17992;DHT22;9121;50.926;5.340;2024-03-02T08:27:47;8.90;99.90
17992;DHT22;9121;50.926;5.340;2024-03-02T08:30:14;8.90;99.90
17992;DHT22;9121;50.926;5.340;2024-03-02T08:32:41;9.10;99.90
17992;DHT22;9121;50.926;5.340;2024-03-02T08:35:09;9.20;99.90
17992;DHT22;9121;50.926;5.340;2024-03-02T08:37:38;9.40;99.90
17992;DHT22;9121;50.926;5.340;2024-03-02T08:40:08;9.40;99.90
17992;DHT22;9121;50.926;5.340;2024-03-02T08:42:36;9.50;99.90
17992;DHT22;9121;50.926;5.340;2024-03-02T08:45:03;9.50;99.90
17992;DHT22;9121;50.926;5.340;2024-03-02T08:47:31;9.50;99.90
17992;DHT22;9121;50.926;5.340;2024-03-02T08:49:59;9.40;99.90
17992;DHT22;9121;50.926;5.340;2024-03-02T08:52:26;9.30;99.90
17992;DHT22;9121;50.926;5.340;2024-03-02T08:54:53;9.40;99.90
17992;DHT22;9121;50.926;5.340;2024-03-02T08:57:21;9.40;99.90
17992;DHT22;9121;50.926;5.340;2024-03-02T08:59:48;9.50;99.90
17992;DHT22;9121;50.926;5.340;2024-03-02T09:02:15;9.50;99.90
17992;DHT22;9121;50.926;5.340;2024-03-02T09:04:42;9.60;99.90
17992;DHT22;9121;50.926;5.340;2024-03-02T09:07:09;9.60;99.90
17992;DHT22;9121;50.926;5.340;2024-03-02T09:09:36;9.60;99.90
17992;DHT22;9121;50.926;5.340;2024-03-02T09:12:04;9.70;99.90
17992;DHT22;9121;50.926;5.340;2024-03-02T09:14:33;9.80;99.90
17992;DHT22;9121;50.926;5.340;2024-03-02T09:17:00;9.90;99.90
17992;DHT22;9121;50.926;5.340;2024-03-02T09:19:28;9.90;99.90
17992;DHT22;9121;50.926;5.340;2024-03-02T09:21:55;9.80;99.90
17992;DHT22;9121;50.926;5.340;2024-03-02T09:24:23;9.90;99.90
17992;DHT22;9121;50.926;5.340;2024-03-02T09:26:50;10.00;99.90
17992;DHT22;9121;50.926;5.340;2024-03-02T09:29:17;10.00;99.90
17992;DHT22;9121;50.926;5.340;2024-03-02T09:31:47;10.10;99.90
17992;DHT22;9121;50.926;5.340;2024-03-02T09:34:15;10.10;99.90
17992;DHT22;9121;50.926;5.340;2024-03-02T09:36:42;10.10;99.90
17992;DHT22;9121;50.926;5.340;2024-03-02T09:39:09;10.20;99.90
17992;DHT22;9121;50.926;5.340;2024-03-02T09:41:36;10.40;99.90
17992;DHT22;9121;50.926;5.340;2024-03-02T09:44:04;10.30;99.90
17992;DHT22;9121;50.926;5.340;2024-03-02T09:46:31;10.30;99.90
17992;DHT22;9121;50.926;5.340;2024-03-02T09:49:00;10.40;99.90
17992;DHT22;9121;50.926;5.340;2024-03-02T09:51:27;10.50;99.90
17992;DHT22;9121;50.926;5.340;2024-03-02T09:53:54;10.60;99.90
17992;DHT22;9121;50.926;5.340;2024-03-02T09:56:22;10.60;99.90
17992;DHT22;9121;50.926;5.340;2024-03-02T09:58:49;10.60;99.90
17992;DHT22;9121;50.926;5.340;2024-03-02T10:01:16;10.50;99.90
17992;DHT22;9121;50.926;5.340;2024-03-02T10:03:44;10.50;99.90
17992;DHT22;9121;50.926;5.340;2024-03-02T10:06:21;10.60;99.90
17992;DHT22;9121;50.926;5.340;2024-03-02T10:08:48;10.70;99.90
17992;DHT22;9121;50.926;5.340;2024-03-02T10:11:26;10.80;99.90
17992;DHT22;9121;50.926;5.340;2024-03-02T10:14:04;10.90;99.90
17992;DHT22;9121;50.926;5.340;2024-03-02T10:16:34;10.90;99.90
17992;DHT22;9121;50.926;5.340;2024-03-02T10:19:15;11.00;99.90
17992;DHT22;9121;50.926;5.340;2024-03-02T10:21:44;11.10;99.90
17992;DHT22;9121;50.926;5.340;2024-03-02T10:24:11;11.00;99.90
17992;DHT22;9121;50.926;5.340;2024-03-02T10:26:39;11.00;99.90
17992;DHT22;9121;50.926;5.340;2024-03-02T10:29:07;11.00;99.90
17992;DHT22;9121;50.926;5.340;2024-03-02T10:31:37;11.10;99.90
17992;DHT22;9121;50.926;5.340;2024-03-02T10:34:04;11.20;99.90
17992;DHT22;9121;50.926;5.340;2024-03-02T10:36:32;11.30;99.90
17992;DHT22;9121;50.926;5.340;2024-03-02T10:39:02;11.30;99.90
17992;DHT22;9121;50.926;5.340;2024-03-02T10:41:32;11.50;99.90
17992;DHT22;9121;50.926;5.340;2024-03-02T10:43:59;11.50;99.90
17992;DHT22;9121;50.926;5.340;2024-03-02T10:46:30;11.60;99.90
17992;DHT22;9121;50.926;5.340;2024-03-02T10:48:57;11.70;99.90
17992;DHT22;9121;50.926;5.340;2024-03-02T10:51:25;11.70;99.90
17992;DHT22;9121;50.926;5.340;2024-03-02T10:53:53;11.80;99.90
17992;DHT22;9121;50.926;5.340;2024-03-02T10:56:28;11.90;99.90
17992;DHT22;9121;50.926;5.340;2024-03-02T10:59:01;11.90;99.90
17992;DHT22;9121;50.926;5.340;2024-03-02T11:01:30;11.90;99.90
17992;DHT22;9121;50.926;5.340;2024-03-02T11:03:59;11.90;99.90
17992;DHT22;9121;50.926;5.340;2024-03-02T11:06:28;12.00;99.90
17992;DHT22;9121;50.926;5.340;2024-03-02T11:09:00;12.10;99.90
17992;DHT22;9121;50.926;5.340;2024-03-02T11:11:36;12.10;99.90
17992;DHT22;9121;50.926;5.340;2024-03-02T11:14:05;12.20;99.90
17992;DHT22;9121;50.926;5.340;2024-03-02T11:16:35;12.20;99.90
17992;DHT22;9121;50.926;5.340;2024-03-02T11:19:05;12.30;99.90
17992;DHT22;9121;50.926;5.340;2024-03-02T11:21:34;12.40;99.90
17992;DHT22;9121;50.926;5.340;2024-03-02T11:24:28;12.50;99.90
17992;DHT22;9121;50.926;5.340;2024-03-02T11:27:00;12.60;99.90
17992;DHT22;9121;50.926;5.340;2024-03-02T11:29:44;12.70;99.90
17992;DHT22;9121;50.926;5.340;2024-03-02T11:32:21;12.70;99.90
17992;DHT22;9121;50.926;5.340;2024-03-02T11:34:50;12.80;99.90
17992;DHT22;9121;50.926;5.340;2024-03-02T11:37:17;12.90;99.90
17992;DHT22;9121;50.926;5.340;2024-03-02T11:39:46;13.00;99.90
17992;DHT22;9121;50.926;5.340;2024-03-02T11:42:15;13.10;99.90
17992;DHT22;9121;50.926;5.340;2024-03-02T11:44:44;13.20;99.90
17992;DHT22;9121;50.926;5.340;2024-03-02T11:47:14;13.20;99.90
17992;DHT22;9121;50.926;5.340;2024-03-02T11:49:42;13.30;99.90
17992;DHT22;9121;50.926;5.340;2024-03-02T11:52:11;13.10;99.90
17992;DHT22;9121;50.926;5.340;2024-03-02T11:54:40;13.10;99.90
17992;DHT22;9121;50.926;5.340;2024-03-02T11:57:12;13.10;99.90
17992;DHT22;9121;50.926;5.340;2024-03-02T11:59:41;13.20;99.90
17992;DHT22;9121;50.926;5.340;2024-03-02T12:02:14;13.20;99.90
17992;DHT22;9121;50.926;5.340;2024-03-02T12:04:42;13.40;99.90
17992;DHT22;9121;50.926;5.340;2024-03-02T12:07:10;13.50;99.90
17992;DHT22;9121;50.926;5.340;2024-03-02T12:09:37;13.80;99.90
17992;DHT22;9121;50.926;5.340;2024-03-02T12:12:06;13.90;99.90
17992;DHT22;9121;50.926;5.340;2024-03-02T12:14:34;14.00;99.90
17992;DHT22;9121;50.926;5.340;2024-03-02T12:17:03;14.00;99.90
17992;DHT22;9121;50.926;5.340;2024-03-02T12:19:31;13.80;99.90
17992;DHT22;9121;50.926;5.340;2024-03-02T12:21:58;14.00;99.90
17992;DHT22;9121;50.926;5.340;2024-03-02T12:24:27;13.90;99.90
17992;DHT22;9121;50.926;5.340;2024-03-02T12:26:55;14.10;99.90
17992;DHT22;9121;50.926;5.340;2024-03-02T12:29:22;14.30;99.90
17992;DHT22;9121;50.926;5.340;2024-03-02T12:31:50;14.40;99.90
17992;DHT22;9121;50.926;5.340;2024-03-02T12:34:19;14.50;99.90
17992;DHT22;9121;50.926;5.340;2024-03-02T12:36:46;14.60;99.90
17992;DHT22;9121;50.926;5.340;2024-03-02T12:39:15;14.80;99.90
17992;DHT22;9121;50.926;5.340;2024-03-02T12:41:42;14.90;99.90
17992;DHT22;9121;50.926;5.340;2024-03-02T12:44:09;15.10;99.90
17992;DHT22;9121;50.926;5.340;2024-03-02T12:46:37;15.20;99.90
17992;DHT22;9121;50.926;5.340;2024-03-02T12:49:11;15.80;99.90
17992;DHT22;9121;50.926;5.340;2024-03-02T12:51:41;15.90;99.90
17992;DHT22;9121;50.926;5.340;2024-03-02T12:54:09;16.10;99.90
17992;DHT22;9121;50.926;5.340;2024-03-02T12:56:37;15.60;99.90
17992;DHT22;9121;50.926;5.340;2024-03-02T12:59:04;15.20;99.90
17992;DHT22;9121;50.926;5.340;2024-03-02T13:01:31;15.00;99.90
17992;DHT22;9121;50.926;5.340;2024-03-02T13:03:59;15.10;99.90
17992;DHT22;9121;50.926;5.340;2024-03-02T13:06:26;15.30;99.90
17992;DHT22;9121;50.926;5.340;2024-03-02T13:08:56;15.30;99.90
17992;DHT22;9121;50.926;5.340;2024-03-02T13:11:23;15.30;99.90
17992;DHT22;9121;50.926;5.340;2024-03-02T13:13:50;15.10;99.90
17992;DHT22;9121;50.926;5.340;2024-03-02T13:16:18;15.00;99.90
17992;DHT22;9121;50.926;5.340;2024-03-02T13:18:45;15.30;99.90
17992;DHT22;9121;50.926;5.340;2024-03-02T13:21:13;15.50;99.90
17992;DHT22;9121;50.926;5.340;2024-03-02T13:23:40;15.50;99.90
17992;DHT22;9121;50.926;5.340;2024-03-02T13:26:08;15.60;99.90
17992;DHT22;9121;50.926;5.340;2024-03-02T13:28:38;15.50;99.90
17992;DHT22;9121;50.926;5.340;2024-03-02T13:31:05;15.70;99.90
17992;DHT22;9121;50.926;5.340;2024-03-02T13:33:32;16.00;99.90
17992;DHT22;9121;50.926;5.340;2024-03-02T13:35:59;16.40;99.90
17992;DHT22;9121;50.926;5.340;2024-03-02T13:38:27;16.30;99.90
17992;DHT22;9121;50.926;5.340;2024-03-02T13:40:54;15.90;99.90
17992;DHT22;9121;50.926;5.340;2024-03-02T13:43:22;15.40;99.90
17992;DHT22;9121;50.926;5.340;2024-03-02T13:45:50;15.10;99.90
17992;DHT22;9121;50.926;5.340;2024-03-02T13:48:19;14.70;99.90
17992;DHT22;9121;50.926;5.340;2024-03-02T13:50:46;14.70;99.90
17992;DHT22;9121;50.926;5.340;2024-03-02T13:53:13;15.00;99.90
17992;DHT22;9121;50.926;5.340;2024-03-02T13:55:40;15.10;99.90
17992;DHT22;9121;50.926;5.340;2024-03-02T13:58:09;15.00;99.90
17992;DHT22;9121;50.926;5.340;2024-03-02T14:00:38;15.00;99.90
17992;DHT22;9121;50.926;5.340;2024-03-02T14:03:06;14.90;99.90
17992;DHT22;9121;50.926;5.340;2024-03-02T14:05:33;15.00;99.90
17992;DHT22;9121;50.926;5.340;2024-03-02T14:08:00;15.20;99.90
17992;DHT22;9121;50.926;5.340;2024-03-02T14:10:27;15.40;99.90
17992;DHT22;9121;50.926;5.340;2024-03-02T14:12:54;15.70;99.90
17992;DHT22;9121;50.926;5.340;2024-03-02T14:15:22;15.80;99.90
17992;DHT22;9121;50.926;5.340;2024-03-02T14:17:50;16.00;99.90
17992;DHT22;9121;50.926;5.340;2024-03-02T14:20:17;16.00;99.90
17992;DHT22;9121;50.926;5.340;2024-03-02T14:22:48;15.70;99.90
17992;DHT22;9121;50.926;5.340;2024-03-02T14:25:15;15.40;99.90
17992;DHT22;9121;50.926;5.340;2024-03-02T14:27:43;15.10;99.90
17992;DHT22;9121;50.926;5.340;2024-03-02T14:30:11;15.00;99.90
17992;DHT22;9121;50.926;5.340;2024-03-02T14:32:38;14.90;99.90
17992;DHT22;9121;50.926;5.340;2024-03-02T14:35:07;14.90;99.90
17992;DHT22;9121;50.926;5.340;2024-03-02T14:37:37;14.80;99.90
17992;DHT22;9121;50.926;5.340;2024-03-02T14:40:05;14.90;99.90
17992;DHT22;9121;50.926;5.340;2024-03-02T14:42:34;15.00;99.90
17992;DHT22;9121;50.926;5.340;2024-03-02T14:45:02;14.60;99.90
17992;DHT22;9121;50.926;5.340;2024-03-02T14:47:31;14.30;99.90
17992;DHT22;9121;50.926;5.340;2024-03-02T14:49:59;14.10;99.90
17992;DHT22;9121;50.926;5.340;2024-03-02T14:52:27;14.20;99.90
17992;DHT22;9121;50.926;5.340;2024-03-02T14:54:54;14.30;99.90
17992;DHT22;9121;50.926;5.340;2024-03-02T14:57:21;14.20;99.90
17992;DHT22;9121;50.926;5.340;2024-03-02T14:59:48;14.30;99.90
17992;DHT22;9121;50.926;5.340;2024-03-02T15:02:15;14.40;99.90
17992;DHT22;9121;50.926;5.340;2024-03-02T15:04:42;14.40;99.90
17992;DHT22;9121;50.926;5.340;2024-03-02T15:07:10;14.30;99.90
17992;DHT22;9121;50.926;5.340;2024-03-02T15:09:38;14.40;99.90
17992;DHT22;9121;50.926;5.340;2024-03-02T15:12:06;14.40;99.90
17992;DHT22;9121;50.926;5.340;2024-03-02T15:14:36;14.30;99.90
17992;DHT22;9121;50.926;5.340;2024-03-02T15:17:04;14.30;99.90
17992;DHT22;9121;50.926;5.340;2024-03-02T15:19:30;14.10;99.90
17992;DHT22;9121;50.926;5.340;2024-03-02T15:21:57;14.00;99.90
17992;DHT22;9121;50.926;5.340;2024-03-02T15:24:25;14.00;99.90
17992;DHT22;9121;50.926;5.340;2024-03-02T15:26:53;13.90;99.90
17992;DHT22;9121;50.926;5.340;2024-03-02T15:29:20;13.80;99.90
17992;DHT22;9121;50.926;5.340;2024-03-02T15:31:50;13.70;99.90
17992;DHT22;9121;50.926;5.340;2024-03-02T15:34:17;13.60;99.90
17992;DHT22;9121;50.926;5.340;2024-03-02T15:36:44;13.70;99.90
17992;DHT22;9121;50.926;5.340;2024-03-02T15:39:11;13.50;99.90
17992;DHT22;9121;50.926;5.340;2024-03-02T15:41:38;13.50;99.90
17992;DHT22;9121;50.926;5.340;2024-03-02T15:44:07;13.60;99.90
17992;DHT22;9121;50.926;5.340;2024-03-02T15:46:34;13.80;99.90
17992;DHT22;9121;50.926;5.340;2024-03-02T15:49:01;13.80;99.90
17992;DHT22;9121;50.926;5.340;2024-03-02T15:51:29;13.70;99.90
17992;DHT22;9121;50.926;5.340;2024-03-02T15:53:56;13.60;99.90
17992;DHT22;9121;50.926;5.340;2024-03-02T15:56:23;13.60;99.90
17992;DHT22;9121;50.926;5.340;2024-03-02T15:58:50;13.60;99.90
17992;DHT22;9121;50.926;5.340;2024-03-02T16:01:19;13.60;99.90